createdAt,value
2018-05-08T00:00:58.064Z,101227.37
2018-05-08T00:03:23.848Z,101232.09
2018-05-08T00:05:49.654Z,101224.28
2018-05-08T00:08:15.477Z,101222.53
2018-05-08T00:10:41.256Z,101220.48
2018-05-08T00:13:07.061Z,101222.55
2018-05-08T00:15:32.864Z,101217.34
2018-05-08T00:17:58.647Z,101219.84
2018-05-08T00:20:24.461Z,101214.92
2018-05-08T00:22:50.242Z,101215.75
2018-05-08T00:25:16.026Z,101218.52
2018-05-08T00:27:41.843Z,101219.23
2018-05-08T00:30:07.632Z,101219.98
2018-05-08T00:32:33.404Z,101212.05
2018-05-08T00:34:59.207Z,101215.75
2018-05-08T00:37:24.986Z,101216.65
2018-05-08T00:39:50.805Z,101210.26
2018-05-08T00:42:16.578Z,101208.68
2018-05-08T00:44:42.363Z,101212.26
2018-05-08T00:47:08.161Z,101205.11
2018-05-08T00:49:33.968Z,101203.75
2018-05-08T00:51:59.752Z,101204.66
2018-05-08T00:54:38.346Z,101205.21
2018-05-08T00:57:04.128Z,101201.09
2018-05-08T00:59:29.928Z,101196.38
2018-05-08T01:01:55.728Z,101192.56
2018-05-08T01:04:22.069Z,101194.53
2018-05-08T01:06:48.521Z,101196.70
2018-05-08T01:09:14.867Z,101201.02
2018-05-08T01:11:40.679Z,101200.58
2018-05-08T01:14:06.450Z,101194.01
2018-05-08T01:16:32.276Z,101193.86
2018-05-08T01:18:58.078Z,101199.28
2018-05-08T01:21:23.863Z,101196.20
2018-05-08T01:23:49.675Z,101196.23
2018-05-08T01:26:15.492Z,101194.38
2018-05-08T01:28:41.368Z,101193.71
2018-05-08T01:31:07.162Z,101189.19
2018-05-08T01:33:32.949Z,101189.92
2018-05-08T01:35:58.746Z,101197.37
2018-05-08T01:38:24.918Z,101195.23
2018-05-08T01:40:50.773Z,101189.39
2018-05-08T01:43:16.599Z,101194.74
2018-05-08T01:45:42.343Z,101190.63
2018-05-08T01:48:08.157Z,101187.03
2018-05-08T01:50:33.972Z,101188.49
2018-05-08T01:52:59.755Z,101194.67
2018-05-08T01:55:25.576Z,101191.02
2018-05-08T01:57:51.382Z,101189.81
2018-05-08T02:00:17.181Z,101184.93
2018-05-08T02:02:42.970Z,101186.13
2018-05-08T02:05:08.782Z,101186.89
2018-05-08T02:10:00.280Z,101186.92
2018-05-08T02:12:26.082Z,101191.95
2018-05-08T02:14:51.875Z,101189.47
2018-05-08T02:17:17.665Z,101188.65
2018-05-08T02:19:43.734Z,101184.41
2018-05-08T02:22:09.525Z,101180.73
2018-05-08T02:24:35.306Z,101184.43
2018-05-08T02:27:01.110Z,101187.32
2018-05-08T02:29:27.235Z,101181.60
2018-05-08T02:31:53.020Z,101179.37
2018-05-08T02:34:18.824Z,101176.61
2018-05-08T02:36:44.604Z,101172.59
2018-05-08T02:39:10.404Z,101172.42
2018-05-08T02:41:36.186Z,101168.08
2018-05-08T02:44:02.135Z,101163.98
2018-05-08T02:46:27.863Z,101167.25
2018-05-08T02:48:53.862Z,101165.45
2018-05-08T02:51:19.678Z,101165.65
2018-05-08T02:53:45.470Z,101160.13
2018-05-08T02:58:49.237Z,101161.92
2018-05-08T03:01:15.051Z,101163.95
2018-05-08T03:03:40.844Z,101161.12
2018-05-08T03:06:06.638Z,101161.16
2018-05-08T03:08:32.450Z,101155.57
2018-05-08T03:10:58.256Z,101157.59
2018-05-08T03:13:24.073Z,101152.98
2018-05-08T03:15:49.849Z,101152.67
2018-05-08T03:18:15.644Z,101144.48
2018-05-08T03:20:41.453Z,101150.98
2018-05-08T03:23:07.246Z,101152.47
2018-05-08T03:25:33.038Z,101149.34
2018-05-08T03:27:58.842Z,101147.14
2018-05-08T03:30:24.652Z,101149.72
2018-05-08T03:32:50.438Z,101149.95
2018-05-08T03:35:16.220Z,101151.67
2018-05-08T03:37:42.029Z,101149.86
2018-05-08T03:40:07.806Z,101141.23
2018-05-08T03:42:33.629Z,101153.47
2018-05-08T03:45:02.413Z,101157.86
2018-05-08T03:47:28.202Z,101153.84
2018-05-08T03:49:54.006Z,101157.31
2018-05-08T03:52:19.810Z,101155.32
2018-05-08T03:54:45.596Z,101150.42
2018-05-08T03:57:11.405Z,101143.51
2018-05-08T03:59:37.196Z,101149.23
2018-05-08T04:02:15.649Z,101145.85
2018-05-08T04:04:53.951Z,101151.91
2018-05-08T04:07:32.074Z,101147.73
2018-05-08T04:09:57.874Z,101147.40
2018-05-08T04:12:23.669Z,101137.95
2018-05-08T04:14:49.464Z,101136.95
2018-05-08T04:17:15.270Z,101133.16
2018-05-08T04:19:41.082Z,101137.07
2018-05-08T04:22:06.874Z,101137.84
2018-05-08T04:24:32.694Z,101132.68
2018-05-08T04:26:58.479Z,101131.70
2018-05-08T04:29:24.266Z,101125.94
2018-05-08T04:31:50.516Z,101128.20
2018-05-08T04:34:16.302Z,101121.94
2018-05-08T04:36:42.171Z,101123.11
2018-05-08T04:39:07.900Z,101123.14
2018-05-08T04:41:33.684Z,101123.92
2018-05-08T04:43:59.471Z,101124.08
2018-05-08T04:46:25.275Z,101120.36
2018-05-08T04:48:51.077Z,101120.52
2018-05-08T04:51:16.854Z,101118.69
2018-05-08T04:53:42.675Z,101116.59
2018-05-08T04:56:08.453Z,101115.41
2018-05-08T04:58:34.243Z,101112.52
2018-05-08T05:01:00.382Z,101114.45
2018-05-08T05:03:26.185Z,101115.91
2018-05-08T05:05:52.003Z,101116.08
2018-05-08T05:08:17.821Z,101113.59
2018-05-08T05:10:43.604Z,101112.27
2018-05-08T05:13:09.444Z,101111.16
2018-05-08T05:15:35.213Z,101113.16
2018-05-08T05:18:01.028Z,101103.39
2018-05-08T05:20:26.833Z,101112.40
2018-05-08T05:22:52.945Z,101113.62
2018-05-08T05:25:18.738Z,101116.27
2018-05-08T05:27:44.517Z,101113.84
2018-05-08T05:30:10.344Z,101113.20
2018-05-08T05:32:36.144Z,101104.19
2018-05-08T05:35:01.959Z,101108.04
2018-05-08T05:37:27.774Z,101104.47
2018-05-08T05:39:54.565Z,101100.86
2018-05-08T05:42:20.362Z,101097.90
2018-05-08T05:44:46.163Z,101104.37
2018-05-08T05:47:11.960Z,101104.22
2018-05-08T05:49:37.762Z,101099.61
2018-05-08T05:52:03.569Z,101100.41
2018-05-08T05:54:29.410Z,101096.66
2018-05-08T05:56:55.229Z,101102.81
2018-05-08T05:59:21.129Z,101098.66
2018-05-08T06:01:46.986Z,101094.40
2018-05-08T06:04:12.838Z,101092.64
2018-05-08T06:06:38.769Z,101090.25
2018-05-08T06:09:04.589Z,101088.33
2018-05-08T06:11:30.402Z,101087.34
2018-05-08T06:13:56.206Z,101090.22
2018-05-08T06:16:21.991Z,101086.41
2018-05-08T06:18:47.797Z,101092.83
2018-05-08T06:21:13.585Z,101084.94
2018-05-08T06:23:39.365Z,101083.49
2018-05-08T06:26:05.299Z,101081.50
2018-05-08T06:28:31.154Z,101080.71
2018-05-08T06:30:56.907Z,101079.47
2018-05-08T06:33:22.726Z,101076.66
2018-05-08T06:35:48.534Z,101080.30
2018-05-08T06:38:14.326Z,101080.30
2018-05-08T06:40:40.148Z,101079.62
2018-05-08T06:43:06.025Z,101080.87
2018-05-08T06:45:31.818Z,101079.78
2018-05-08T06:47:57.849Z,101079.42
2018-05-08T06:50:23.642Z,101081.30
2018-05-08T06:52:49.466Z,101086.84
2018-05-08T06:55:15.253Z,101080.98
2018-05-08T06:57:41.053Z,101074.16
2018-05-08T07:00:06.852Z,101080.41
2018-05-08T07:02:32.653Z,101074.70
2018-05-08T07:04:58.445Z,101079.66
2018-05-08T07:07:24.229Z,101073.89
2018-05-08T07:09:50.027Z,101075.56
2018-05-08T07:12:15.846Z,101082.60
2018-05-08T07:14:41.651Z,101080.16
2018-05-08T07:17:07.460Z,101079.02
2018-05-08T07:19:33.249Z,101074.08
2018-05-08T07:21:59.053Z,101078.18
2018-05-08T07:24:24.886Z,101074.13
2018-05-08T07:26:50.687Z,101074.55
2018-05-08T07:29:16.483Z,101068.56
2018-05-08T07:31:42.322Z,101066.14
2018-05-08T07:34:08.136Z,101074.48
2018-05-08T07:36:33.922Z,101067.97
2018-05-08T07:38:59.730Z,101062.80
2018-05-08T07:41:25.538Z,101065.18
2018-05-08T07:43:51.358Z,101056.75
2018-05-08T07:46:17.149Z,101059.33
2018-05-08T07:48:42.964Z,101050.94
2018-05-08T07:51:09.094Z,101062.36
2018-05-08T07:53:34.893Z,101064.39
2018-05-08T07:56:00.685Z,101064.70
2018-05-08T07:58:26.511Z,101068.94
2018-05-08T08:00:52.309Z,101060.20
2018-05-08T08:03:18.135Z,101058.13
2018-05-08T08:05:43.938Z,101056.18
2018-05-08T08:08:09.758Z,101055.16
2018-05-08T08:10:35.557Z,101053.57
2018-05-08T08:13:03.406Z,101051.70
2018-05-08T08:15:29.257Z,101051.22
2018-05-08T08:17:55.080Z,101044.52
2018-05-08T08:20:20.855Z,101052.61
2018-05-08T08:22:46.637Z,101052.95
2018-05-08T08:25:12.442Z,101049.04
2018-05-08T08:27:38.237Z,101041.41
2018-05-08T08:30:04.075Z,101043.17
2018-05-08T08:32:29.932Z,101040.01
2018-05-08T08:34:55.784Z,101033.92
2018-05-08T08:37:21.616Z,101027.80
2018-05-08T08:39:47.456Z,101031.84
2018-05-08T08:42:13.321Z,101020.63
2018-05-08T08:44:39.172Z,101021.69
2018-05-08T08:47:05.012Z,101021.08
2018-05-08T08:49:31.015Z,101018.52
2018-05-08T08:51:56.837Z,101020.93
2018-05-08T08:54:22.639Z,101016.53
2018-05-08T08:56:48.456Z,101016.37
2018-05-08T08:59:14.234Z,101012.78
2018-05-08T09:01:40.001Z,101011.77
2018-05-08T09:04:05.873Z,100993.72
2018-05-08T09:06:31.621Z,101005.67
2018-05-08T09:08:57.399Z,101004.91
2018-05-08T09:11:23.198Z,101004.91
2018-05-08T09:13:49.035Z,101008.53
2018-05-08T09:16:14.817Z,101002.52
2018-05-08T09:18:40.633Z,101002.08
2018-05-08T09:21:06.411Z,100995.63
2018-05-08T09:23:32.192Z,100996.91
2018-05-08T09:25:58.218Z,100995.00
2018-05-08T09:28:23.986Z,100989.72
2018-05-08T09:30:49.776Z,100992.76
2018-05-08T09:33:15.557Z,100989.08
2018-05-08T09:35:41.334Z,100980.69
2018-05-08T09:38:07.112Z,100976.64
2018-05-08T09:40:32.930Z,100971.45
2018-05-08T09:42:58.774Z,100981.14
2018-05-08T09:45:24.565Z,100979.91
2018-05-08T09:47:50.333Z,100976.91
2018-05-08T09:50:16.108Z,100976.06
2018-05-08T09:52:41.904Z,100975.98
2018-05-08T09:55:07.735Z,100972.37
2018-05-08T09:57:33.519Z,100963.36
2018-05-08T09:59:59.318Z,100964.19
2018-05-08T10:02:25.117Z,100959.52
2018-05-08T10:04:50.890Z,100960.41
2018-05-08T10:07:16.685Z,100953.14
2018-05-08T10:09:42.463Z,100957.38
2018-05-08T10:12:08.253Z,100955.28
2018-05-08T10:14:34.326Z,100956.49
2018-05-08T10:17:00.098Z,100947.31
2018-05-08T10:19:25.863Z,100936.98
2018-05-08T10:21:51.661Z,100939.97
2018-05-08T10:24:17.460Z,100938.19
2018-05-08T10:26:43.303Z,100940.94
2018-05-08T10:29:09.059Z,100932.91
2018-05-08T10:31:34.826Z,100920.94
2018-05-08T10:34:00.618Z,100927.78
2018-05-08T10:36:26.394Z,100923.80
2018-05-08T10:38:52.169Z,100917.09
2018-05-08T10:41:17.967Z,100912.12
2018-05-08T10:43:43.756Z,100914.86
2018-05-08T10:46:09.550Z,100906.22
2018-05-08T10:48:35.473Z,100903.78
2018-05-08T10:51:01.246Z,100907.34
2018-05-08T10:53:27.022Z,100903.45
2018-05-08T10:55:52.807Z,100902.63
2018-05-08T10:58:18.627Z,100893.64
2018-05-08T11:00:44.698Z,100892.33
2018-05-08T11:03:10.495Z,100892.97
2018-05-08T11:05:36.307Z,100887.27
2018-05-08T11:08:02.123Z,100894.04
2018-05-08T11:10:27.907Z,100881.25
2018-05-08T11:12:53.698Z,100880.01
2018-05-08T11:15:19.484Z,100877.14
2018-05-08T11:17:45.264Z,100879.40
2018-05-08T11:20:11.060Z,100874.59
2018-05-08T11:22:36.850Z,100865.55
2018-05-08T11:25:02.671Z,100873.80
2018-05-08T11:27:28.445Z,100858.38
2018-05-08T11:29:54.227Z,100860.94
2018-05-08T11:32:20.005Z,100857.53
2018-05-08T11:34:46.835Z,100856.27
2018-05-08T11:37:12.623Z,100851.55
2018-05-08T11:39:38.418Z,100852.34
2018-05-08T11:42:04.234Z,100848.87
2018-05-08T11:44:30.040Z,100842.86
2018-05-08T11:46:55.834Z,100835.67
2018-05-08T11:49:21.646Z,100826.28
2018-05-08T11:51:47.481Z,100832.69
2018-05-08T11:54:13.274Z,100826.75
2018-05-08T11:56:39.069Z,100820.74
2018-05-08T11:59:04.873Z,100820.30
2018-05-08T12:01:30.670Z,100815.58
2018-05-08T12:03:56.665Z,100820.32
2018-05-08T12:06:22.462Z,100802.33
2018-05-08T12:08:48.258Z,100799.83
2018-05-08T12:11:14.050Z,100804.13
2018-05-08T12:13:39.861Z,100796.81
2018-05-08T12:16:05.646Z,100794.70
2018-05-08T12:18:31.432Z,100795.11
2018-05-08T12:20:57.241Z,100783.48
2018-05-08T12:23:23.039Z,100787.77
2018-05-08T12:25:48.941Z,100792.02
2018-05-08T12:28:14.747Z,100789.14
2018-05-08T12:30:40.618Z,100780.52
2018-05-08T12:33:06.357Z,100776.08
2018-05-08T12:35:32.165Z,100765.81
2018-05-08T12:37:57.971Z,100765.82
2018-05-08T12:40:23.778Z,100768.34
2018-05-08T12:42:49.580Z,100759.23
2018-05-08T12:45:15.398Z,100760.37
2018-05-08T12:47:41.231Z,100757.04
2018-05-08T12:50:07.044Z,100757.32
2018-05-08T12:52:32.847Z,100758.97
2018-05-08T12:54:58.688Z,100745.20
2018-05-08T12:57:24.542Z,100744.38
2018-05-08T12:59:50.339Z,100740.45
2018-05-08T13:02:16.155Z,100742.59
2018-05-08T13:04:41.981Z,100740.89
2018-05-08T13:07:07.775Z,100734.79
2018-05-08T13:09:33.565Z,100741.31
2018-05-08T13:11:59.377Z,100737.86
2018-05-08T13:14:25.154Z,100733.90
2018-05-08T13:16:50.941Z,100733.70
2018-05-08T13:19:16.734Z,100736.23
2018-05-08T13:21:42.536Z,100732.38
2018-05-08T13:24:08.359Z,100726.06
2018-05-08T13:26:34.134Z,100719.94
2018-05-08T13:28:59.935Z,100718.91
2018-05-08T13:31:25.717Z,100722.28
2018-05-08T13:33:51.517Z,100716.86
2018-05-08T13:36:17.350Z,100710.02
2018-05-08T13:38:43.173Z,100704.08
2018-05-08T13:41:09.028Z,100693.06
2018-05-08T13:43:34.839Z,100698.80
2018-05-08T13:46:00.629Z,100696.25
2018-05-08T13:48:26.745Z,100697.87
2018-05-08T13:50:52.521Z,100700.70
2018-05-08T13:53:18.397Z,100692.34
2018-05-08T13:55:44.510Z,100694.95
2018-05-08T13:58:10.290Z,100693.53
2018-05-08T14:00:36.085Z,100690.22
2018-05-08T14:03:01.899Z,100682.33
2018-05-08T14:05:27.705Z,100677.67
2018-05-08T14:07:53.487Z,100672.72
2018-05-08T14:10:19.293Z,100672.58
2018-05-08T14:12:45.082Z,100665.56
2018-05-08T14:15:10.879Z,100664.84
2018-05-08T14:17:36.770Z,100665.08
2018-05-08T14:20:02.679Z,100663.45
2018-05-08T14:22:28.491Z,100666.73
2018-05-08T14:24:54.856Z,100656.34
2018-05-08T14:27:20.648Z,100645.31
2018-05-08T14:29:46.469Z,100648.26
2018-05-08T14:32:12.268Z,100645.36
2018-05-08T14:34:38.060Z,100655.17
2018-05-08T14:37:03.895Z,100647.78
2018-05-08T14:39:29.637Z,100645.22
2018-05-08T14:41:55.471Z,100640.14
2018-05-08T14:44:21.284Z,100642.19
2018-05-08T14:46:47.070Z,100634.91
2018-05-08T14:49:12.883Z,100632.03
2018-05-08T14:51:38.674Z,100627.14
2018-05-08T14:54:04.532Z,100624.88
2018-05-08T14:56:30.317Z,100617.56
2018-05-08T14:58:56.244Z,100624.80
2018-05-08T15:01:21.943Z,100629.31
2018-05-08T15:03:47.726Z,100615.12
2018-05-08T15:06:13.559Z,100617.88
2018-05-08T15:08:39.392Z,100607.28
2018-05-08T15:11:05.233Z,100608.19
2018-05-08T15:13:31.108Z,100605.63
2018-05-08T15:15:56.826Z,100607.05
2018-05-08T15:18:22.621Z,100598.88
2018-05-08T15:20:48.409Z,100593.83
2018-05-08T15:23:14.223Z,100602.03
2018-05-08T15:25:40.024Z,100590.30
2018-05-08T15:28:05.817Z,100597.71
2018-05-08T15:30:31.627Z,100586.98
2018-05-08T15:32:57.429Z,100581.92
2018-05-08T15:35:23.225Z,100586.59
2018-05-08T15:37:49.028Z,100579.75
2018-05-08T15:40:14.801Z,100578.89
2018-05-08T15:42:40.618Z,100575.93
2018-05-08T15:45:06.397Z,100572.46
2018-05-08T15:47:32.190Z,100575.95
2018-05-08T15:49:58.176Z,100567.38
2018-05-08T15:52:23.975Z,100564.83
2018-05-08T15:54:49.765Z,100557.14
2018-05-08T15:57:15.561Z,100553.68
2018-05-08T15:59:41.350Z,100549.83
2018-05-08T16:02:07.215Z,100552.84
2018-05-08T16:04:33.898Z,100549.00
2018-05-08T16:06:59.701Z,100552.91
2018-05-08T16:09:25.506Z,100552.94
2018-05-08T16:11:51.293Z,100551.20
2018-05-08T16:14:17.090Z,100549.53
2018-05-08T16:16:43.053Z,100548.64
2018-05-08T16:19:08.868Z,100549.53
2018-05-08T16:21:34.671Z,100550.36
2018-05-08T16:24:00.465Z,100545.69
2018-05-08T16:26:26.257Z,100546.52
2018-05-08T16:28:52.045Z,100544.81
2018-05-08T16:31:17.838Z,100540.11
2018-05-08T16:33:43.629Z,100535.42
2018-05-08T16:36:09.447Z,100537.11
2018-05-08T16:38:35.250Z,100540.11
2018-05-08T16:41:01.043Z,100539.72
2018-05-08T16:43:26.897Z,100540.12
2018-05-08T16:45:52.698Z,100535.43
2018-05-08T16:48:18.532Z,100541.84
2018-05-08T16:50:44.321Z,100534.12
2018-05-08T16:53:10.127Z,100531.59
2018-05-08T16:55:35.942Z,100528.16
2018-05-08T16:58:01.751Z,100530.31
2018-05-08T17:00:27.548Z,100529.88
2018-05-08T17:02:53.339Z,100530.73
2018-05-08T17:05:19.139Z,100526.89
2018-05-08T17:07:44.913Z,100517.91
2018-05-08T17:10:10.701Z,100524.75
2018-05-08T17:12:36.510Z,100522.58
2018-05-08T17:15:02.464Z,100516.56
2018-05-08T17:17:28.272Z,100519.60
2018-05-08T17:19:54.073Z,100514.47
2018-05-08T17:22:20.078Z,100517.02
2018-05-08T17:24:45.865Z,100516.58
2018-05-08T17:27:11.664Z,100513.98
2018-05-08T17:29:37.449Z,100518.70
2018-05-08T17:32:03.286Z,100514.02
2018-05-08T17:34:29.103Z,100505.87
2018-05-08T17:36:54.997Z,100511.41
2018-05-08T17:39:20.773Z,100505.42
2018-05-08T17:41:46.584Z,100507.95
2018-05-08T17:44:12.404Z,100505.81
2018-05-08T17:46:38.205Z,100508.39
2018-05-08T17:49:04.025Z,100507.52
2018-05-08T17:51:29.830Z,100506.23
2018-05-08T17:53:55.626Z,100506.16
2018-05-08T17:56:21.425Z,100510.43
2018-05-08T17:58:47.211Z,100504.47
2018-05-08T18:01:13.010Z,100504.43
2018-05-08T18:03:38.812Z,100499.28
2018-05-08T18:06:04.618Z,100503.96
2018-05-08T18:08:30.519Z,100500.09
2018-05-08T18:10:56.335Z,100496.25
2018-05-08T18:13:22.129Z,100501.77
2018-05-08T18:15:48.465Z,100503.01
2018-05-08T18:18:14.268Z,100497.88
2018-05-08T18:20:40.236Z,100501.28
2018-05-08T18:23:06.072Z,100499.13
2018-05-08T18:25:31.890Z,100506.36
2018-05-08T18:27:57.685Z,100505.05
2018-05-08T18:30:23.494Z,100503.30
2018-05-08T18:32:49.490Z,100501.14
2018-05-08T18:35:15.313Z,100497.23
2018-05-08T18:37:41.305Z,100507.44
2018-05-08T18:40:07.110Z,100512.09
2018-05-08T18:42:33.254Z,100496.17
2018-05-08T18:44:59.230Z,100502.55
2018-05-08T18:47:25.025Z,100502.13
2018-05-08T18:49:51.122Z,100502.13
2018-05-08T18:52:16.939Z,100502.89
2018-05-08T18:54:42.733Z,100497.29
2018-05-08T18:57:08.606Z,100504.97
2018-05-08T18:59:34.447Z,100508.80
2018-05-08T19:02:00.239Z,100506.91
2018-05-08T19:04:26.896Z,100504.33
2018-05-08T19:06:52.770Z,100505.11
2018-05-08T19:09:18.527Z,100513.19
2018-05-08T19:11:44.348Z,100511.41
2018-05-08T19:14:10.224Z,100509.66
2018-05-08T19:16:36.042Z,100514.75
2018-05-08T19:19:07.952Z,100503.91
2018-05-08T19:21:34.202Z,100506.35
2018-05-08T19:24:06.272Z,100512.36
2018-05-08T19:26:32.242Z,100514.23
2018-05-08T19:29:04.401Z,100514.55
2018-05-08T19:31:30.287Z,100516.59
2018-05-08T19:33:56.124Z,100519.05
2018-05-08T19:36:27.922Z,100518.10
2018-05-08T19:38:53.726Z,100514.98
2018-05-08T19:41:19.541Z,100515.83
2018-05-08T19:43:45.349Z,100516.21
2018-05-08T19:46:11.163Z,100520.42
2018-05-08T19:48:36.964Z,100512.67
2018-05-08T19:51:02.785Z,100513.84
2018-05-08T19:53:28.565Z,100521.45
2018-05-08T19:55:54.721Z,100521.73
2018-05-08T19:58:20.582Z,100522.58
2018-05-08T20:00:46.754Z,100516.14
2018-05-08T20:03:12.565Z,100521.20
2018-05-08T20:05:38.369Z,100522.74
2018-05-08T20:08:04.165Z,100516.84
2018-05-08T20:10:30.028Z,100517.16
2018-05-08T20:12:55.866Z,100518.27
2018-05-08T20:15:21.654Z,100517.73
2018-05-08T20:17:47.476Z,100524.84
2018-05-08T20:20:13.282Z,100525.31
2018-05-08T20:22:39.073Z,100521.38
2018-05-08T20:25:04.888Z,100527.69
2018-05-08T20:27:30.942Z,100527.75
2018-05-08T20:29:56.772Z,100524.71
2018-05-08T20:32:22.722Z,100523.44
2018-05-08T20:34:48.524Z,100518.96
2018-05-08T20:37:14.575Z,100523.00
2018-05-08T20:39:40.765Z,100516.39
2018-05-08T20:42:06.710Z,100520.81
2018-05-08T20:44:32.564Z,100524.44
2018-05-08T20:46:58.707Z,100524.52
2018-05-08T20:49:24.550Z,100521.74
2018-05-08T20:51:50.814Z,100525.66
2018-05-08T20:54:16.964Z,100522.37
2018-05-08T20:56:42.822Z,100520.55
2018-05-08T20:59:08.625Z,100520.64
2018-05-08T21:01:34.417Z,100516.31
2018-05-08T21:04:00.214Z,100521.77
2018-05-08T21:06:26.007Z,100514.37
2018-05-08T21:08:52.096Z,100517.27
2018-05-08T21:11:17.892Z,100522.63
2018-05-08T21:13:43.857Z,100525.59
2018-05-08T21:16:10.348Z,100524.39
2018-05-08T21:18:36.142Z,100525.94
2018-05-08T21:21:02.207Z,100526.27
2018-05-08T21:23:28.007Z,100525.67
2018-05-08T21:25:53.806Z,100524.34
2018-05-08T21:28:26.109Z,100533.77
2018-05-08T21:30:58.129Z,100526.43
2018-05-08T21:33:23.909Z,100527.88
2018-05-08T21:35:49.715Z,100530.45
2018-05-08T21:38:15.771Z,100528.07
2018-05-08T21:40:41.561Z,100526.55
2018-05-08T21:43:07.370Z,100525.44
2018-05-08T21:45:33.452Z,100530.58
2018-05-08T21:47:59.260Z,100529.91
2018-05-08T21:50:25.063Z,100526.02
2018-05-08T21:52:50.877Z,100524.19
2018-05-08T21:55:16.734Z,100522.42
2018-05-08T21:57:42.522Z,100521.84
2018-05-08T22:00:11.231Z,100518.95
2018-05-08T22:02:37.013Z,100522.78
2018-05-08T22:05:02.840Z,100523.61
2018-05-08T22:07:28.661Z,100524.89
2018-05-08T22:09:54.453Z,100520.88
2018-05-08T22:12:20.253Z,100526.97
2018-05-08T22:14:46.039Z,100523.04
2018-05-08T22:17:11.834Z,100525.06
2018-05-08T22:19:37.656Z,100522.86
2018-05-08T22:22:03.445Z,100526.06
2018-05-08T22:24:29.241Z,100520.89
2018-05-08T22:26:55.033Z,100516.30
2018-05-08T22:29:20.820Z,100520.00
2018-05-08T22:31:46.618Z,100520.89
2018-05-08T22:34:12.436Z,100524.13
2018-05-08T22:36:38.227Z,100519.14
2018-05-08T22:39:04.036Z,100514.23
2018-05-08T22:41:29.845Z,100517.61
2018-05-08T22:43:55.632Z,100502.48
2018-05-08T22:46:21.425Z,100512.49
2018-05-08T22:48:47.233Z,100513.06
2018-05-08T22:51:13.025Z,100513.50
2018-05-08T22:53:38.796Z,100510.77
2018-05-08T22:56:04.571Z,100506.05
2018-05-08T22:58:30.367Z,100502.09
2018-05-08T23:00:56.165Z,100502.71
2018-05-08T23:03:21.950Z,100509.97
2018-05-08T23:05:47.770Z,100508.30
2018-05-08T23:08:13.537Z,100515.34
2018-05-08T23:10:39.321Z,100497.06
2018-05-08T23:13:05.338Z,100511.25
2018-05-08T23:15:31.121Z,100509.17
2018-05-08T23:17:56.923Z,100504.30
2018-05-08T23:20:22.718Z,100501.56
2018-05-08T23:22:48.510Z,100498.73
2018-05-08T23:25:14.298Z,100501.33
2018-05-08T23:27:40.126Z,100496.04
2018-05-08T23:30:05.901Z,100498.71
2018-05-08T23:32:31.705Z,100498.71
2018-05-08T23:34:57.534Z,100493.84
2018-05-08T23:37:23.331Z,100490.75
2018-05-08T23:39:49.116Z,100490.65
2018-05-08T23:42:14.909Z,100491.05
2018-05-08T23:44:40.701Z,100493.11
2018-05-08T23:47:06.533Z,100494.91
2018-05-08T23:49:32.338Z,100490.55
2018-05-08T23:51:58.117Z,100487.66
2018-05-08T23:54:23.929Z,100487.77
2018-05-08T23:56:49.709Z,100491.06
2018-05-08T23:59:15.485Z,100485.45
